createdAt,value
2023-02-15T00:04:08.080Z,3.25
2023-02-15T00:09:11.151Z,3.59
2023-02-15T00:14:18.307Z,3.68
2023-02-15T00:19:22.146Z,3.71
2023-02-15T00:24:23.794Z,3.53
2023-02-15T00:29:25.506Z,3.50
2023-02-15T00:34:28.697Z,3.56
2023-02-15T00:39:30.253Z,3.70
2023-02-15T00:44:31.739Z,3.55
2023-02-15T00:49:33.348Z,3.52
2023-02-15T00:54:34.841Z,3.62
2023-02-15T00:59:36.359Z,3.66
2023-02-15T01:04:37.884Z,3.51
2023-02-15T01:09:39.400Z,3.52
2023-02-15T01:14:40.956Z,3.34
2023-02-15T01:19:42.611Z,3.42
2023-02-15T01:24:44.242Z,3.52
2023-02-15T01:29:45.769Z,3.58
2023-02-15T01:34:47.273Z,3.56
2023-02-15T01:39:48.805Z,3.60
2023-02-15T01:44:53.094Z,3.30
2023-02-15T01:50:21.950Z,3.22
2023-02-15T01:55:26.866Z,3.30
2023-02-15T02:00:28.862Z,3.51
2023-02-15T02:05:31.405Z,3.39
2023-02-15T02:10:33.098Z,3.33
2023-02-15T02:15:48.812Z,3.41
2023-02-15T02:21:22.908Z,3.39
2023-02-15T02:26:46.355Z,3.29
2023-02-15T02:31:53.872Z,3.49
2023-02-15T02:37:13.671Z,3.51
2023-02-15T02:42:15.111Z,3.61
2023-02-15T02:47:34.147Z,3.40
2023-02-15T02:52:40.163Z,3.47
2023-02-15T02:57:57.166Z,3.43
2023-02-15T03:03:05.213Z,3.53
2023-02-15T03:08:09.191Z,3.47
2023-02-15T03:13:10.669Z,3.64
2023-02-15T03:18:12.633Z,3.10
2023-02-15T03:23:21.605Z,3.24
2023-02-15T03:28:31.728Z,3.29
2023-02-15T03:33:36.811Z,3.13
2023-02-15T03:38:53.575Z,3.18
2023-02-15T03:44:05.481Z,3.20
2023-02-15T03:49:16.732Z,2.87
2023-02-15T03:54:31.002Z,3.31
2023-02-15T03:59:32.575Z,3.36
2023-02-15T04:04:37.457Z,3.35
2023-02-15T04:09:38.995Z,3.46
2023-02-15T04:14:40.466Z,3.45
2023-02-15T04:19:41.954Z,3.31
2023-02-15T04:24:43.396Z,3.13
2023-02-15T04:29:44.895Z,3.14
2023-02-15T04:34:46.334Z,3.09
2023-02-15T04:39:47.916Z,3.08
2023-02-15T04:44:49.571Z,3.20
2023-02-15T04:49:51.152Z,3.27
2023-02-15T04:54:52.632Z,3.37
2023-02-15T04:59:54.219Z,3.32
2023-02-15T05:04:55.654Z,3.38
2023-02-15T05:09:57.163Z,3.30
2023-02-15T05:14:58.622Z,3.42
2023-02-15T05:20:00.145Z,3.38
2023-02-15T05:25:01.647Z,2.94
2023-02-15T05:30:03.932Z,3.36
2023-02-15T05:35:07.657Z,3.19
2023-02-15T05:40:09.706Z,3.24
2023-02-15T05:45:11.210Z,3.07
2023-02-15T05:50:12.916Z,3.31
2023-02-15T05:55:14.294Z,3.15
2023-02-15T06:00:16.215Z,3.12
2023-02-15T06:05:17.702Z,2.84
2023-02-15T06:10:19.240Z,3.32
2023-02-15T06:15:20.654Z,3.20
2023-02-15T06:20:22.141Z,3.22
2023-02-15T06:25:23.609Z,3.06
2023-02-15T06:30:25.243Z,3.15
2023-02-15T06:35:26.724Z,3.12
2023-02-15T06:40:28.219Z,3.07
2023-02-15T06:45:29.625Z,3.38
2023-02-15T06:50:31.153Z,3.02
2023-02-15T06:55:32.649Z,3.21
2023-02-15T07:00:34.154Z,3.05
2023-02-15T07:05:35.884Z,3.07
2023-02-15T07:10:37.383Z,3.31
2023-02-15T07:15:38.858Z,3.02
2023-02-15T07:20:40.836Z,2.99
2023-02-15T07:25:42.326Z,3.04
2023-02-15T07:30:43.740Z,3.00
2023-02-15T07:35:54.012Z,2.88
2023-02-15T07:41:07.511Z,2.78
2023-02-15T07:46:15.197Z,2.60
2023-02-15T07:51:16.950Z,2.82
2023-02-15T07:56:18.574Z,2.67
2023-02-15T08:01:21.862Z,3.06
2023-02-15T08:06:25.766Z,3.20
2023-02-15T08:11:38.035Z,3.15
2023-02-15T08:16:56.554Z,3.44
2023-02-15T08:22:03.910Z,3.27
2023-02-15T08:27:07.637Z,2.94
2023-02-15T08:32:11.645Z,3.36
2023-02-15T08:37:13.211Z,3.46
2023-02-15T08:42:14.708Z,3.48
2023-02-15T08:47:16.168Z,3.46
2023-02-15T08:52:18.263Z,3.49
2023-02-15T08:57:19.665Z,3.42
2023-02-15T09:02:21.219Z,3.51
2023-02-15T09:07:22.787Z,3.67
2023-02-15T09:12:24.328Z,3.73
2023-02-15T09:17:25.820Z,3.78
2023-02-15T09:22:27.377Z,3.84
2023-02-15T09:27:28.806Z,4.06
2023-02-15T09:32:30.288Z,3.92
2023-02-15T09:37:31.927Z,3.78
2023-02-15T09:43:19.400Z,3.89
2023-02-15T09:48:20.787Z,4.11
2023-02-15T09:53:50.404Z,4.14
2023-02-15T09:59:00.706Z,3.40
2023-02-15T10:04:37.055Z,3.27
2023-02-15T10:10:08.932Z,4.07
2023-02-15T10:15:24.753Z,3.74
2023-02-15T10:21:05.836Z,3.76
2023-02-15T10:26:20.717Z,3.83
2023-02-15T10:31:35.493Z,4.57
2023-02-15T10:37:05.731Z,4.24
2023-02-15T10:42:09.966Z,4.56
2023-02-15T10:47:39.554Z,4.51
2023-02-15T10:53:06.561Z,4.69
2023-02-15T10:58:30.391Z,4.94
2023-02-15T11:03:37.656Z,5.17
2023-02-15T11:08:46.211Z,5.09
2023-02-15T11:13:52.311Z,5.08
2023-02-15T11:19:07.065Z,5.34
2023-02-15T11:24:13.580Z,5.23
2023-02-15T11:29:26.712Z,5.32
2023-02-15T11:34:44.438Z,5.38
2023-02-15T11:39:45.992Z,5.28
2023-02-15T11:44:58.088Z,5.19
2023-02-15T11:50:00.562Z,5.36
2023-02-15T11:55:02.248Z,5.47
2023-02-15T12:00:17.893Z,5.56
2023-02-15T12:05:24.467Z,5.54
2023-02-15T12:10:32.996Z,5.57
2023-02-15T12:15:36.058Z,5.68
2023-02-15T12:20:44.208Z,5.61
2023-02-15T12:25:57.322Z,5.75
2023-02-15T12:30:59.600Z,5.87
2023-02-15T12:36:13.236Z,5.82
2023-02-15T12:41:27.076Z,5.93
2023-02-15T12:46:28.862Z,6.02
2023-02-15T12:51:30.330Z,5.50
2023-02-15T12:56:31.875Z,5.81
2023-02-15T13:01:34.568Z,5.93
2023-02-15T13:06:37.690Z,5.86
2023-02-15T13:11:42.446Z,5.61
2023-02-15T13:16:46.388Z,5.57
2023-02-15T13:21:54.170Z,5.76
2023-02-15T13:27:13.168Z,5.75
2023-02-15T13:32:19.423Z,5.79
2023-02-15T13:37:54.443Z,5.80
2023-02-15T13:43:01.690Z,5.73
2023-02-15T13:48:15.026Z,5.57
2023-02-15T13:53:36.312Z,5.62
2023-02-15T13:59:20.960Z,5.77
2023-02-15T14:04:44.546Z,5.65
2023-02-15T14:10:16.903Z,5.55
2023-02-15T14:15:36.410Z,5.56
2023-02-15T14:20:54.802Z,5.27
2023-02-15T14:26:01.729Z,5.44
2023-02-15T14:31:06.768Z,5.32
2023-02-15T14:36:12.383Z,5.31
2023-02-15T14:41:33.196Z,5.27
2023-02-15T14:46:37.806Z,5.36
2023-02-15T14:51:42.173Z,5.46
2023-02-15T14:56:45.566Z,5.67
2023-02-15T15:01:56.243Z,5.45
2023-02-15T15:07:13.079Z,5.49
2023-02-15T15:12:26.721Z,4.84
2023-02-15T15:17:34.205Z,5.04
2023-02-15T15:22:37.154Z,4.71
2023-02-15T15:27:53.788Z,4.76
2023-02-15T15:32:55.239Z,4.62
2023-02-15T15:38:09.679Z,4.93
2023-02-15T15:43:42.294Z,5.03
2023-02-15T15:48:43.901Z,5.10
2023-02-15T15:53:48.691Z,4.38
2023-02-15T15:58:55.148Z,4.81
2023-02-15T16:03:59.519Z,4.76
2023-02-15T16:09:21.440Z,4.38
2023-02-15T16:14:31.326Z,4.57
2023-02-15T16:19:39.140Z,4.67
2023-02-15T16:24:49.832Z,4.59
2023-02-15T16:29:51.325Z,4.51
2023-02-15T16:35:03.199Z,4.27
2023-02-15T16:40:05.303Z,4.49
2023-02-15T16:45:14.735Z,4.12
2023-02-15T16:50:28.719Z,4.38
2023-02-15T16:55:37.796Z,4.34
2023-02-15T17:00:39.962Z,4.24
2023-02-15T17:05:43.527Z,4.32
2023-02-15T17:11:00.113Z,4.18
2023-02-15T17:16:02.362Z,4.16
2023-02-15T17:21:27.193Z,4.22
2023-02-15T17:26:38.096Z,4.11
2023-02-15T17:31:39.856Z,4.12
2023-02-15T17:36:58.564Z,4.08
2023-02-15T17:42:00.026Z,4.22
2023-02-15T17:47:01.663Z,4.08
2023-02-15T17:52:03.364Z,4.01
2023-02-15T17:57:13.687Z,4.12
2023-02-15T18:02:15.227Z,4.12
2023-02-15T18:07:18.885Z,3.92
2023-02-15T18:12:31.691Z,4.06
2023-02-15T18:17:39.559Z,3.73
2023-02-15T18:22:41.486Z,3.90
2023-02-15T18:27:43.814Z,3.90
2023-02-15T18:32:47.009Z,3.95
2023-02-15T18:37:49.699Z,4.01
2023-02-15T18:42:51.136Z,3.92
2023-02-15T18:47:52.607Z,3.84
2023-02-15T18:52:54.190Z,3.94
2023-02-15T18:57:57.136Z,3.94
2023-02-15T19:02:59.880Z,3.49
2023-02-15T19:08:02.454Z,3.28
2023-02-15T19:13:03.916Z,3.06
2023-02-15T19:18:05.602Z,2.98
2023-02-15T19:23:14.536Z,3.03
2023-02-15T19:28:26.248Z,2.97
2023-02-15T19:33:27.730Z,2.74
2023-02-15T19:38:34.186Z,2.51
2023-02-15T19:43:35.989Z,2.68
2023-02-15T19:48:37.613Z,2.56
2023-02-15T19:53:39.423Z,2.70
2023-02-15T19:58:40.975Z,2.73
2023-02-15T20:03:42.510Z,2.32
2023-02-15T20:08:44.737Z,2.41
2023-02-15T20:13:47.348Z,2.43
2023-02-15T20:18:49.350Z,2.46
2023-02-15T20:23:51.007Z,2.66
2023-02-15T20:28:52.720Z,2.42
2023-02-15T20:33:54.233Z,2.51
2023-02-15T20:38:59.167Z,2.43
2023-02-15T20:44:00.881Z,2.38
2023-02-15T20:49:02.361Z,2.44
2023-02-15T20:54:12.607Z,2.40
2023-02-15T20:59:31.573Z,2.47
2023-02-15T21:04:34.148Z,2.24
2023-02-15T21:09:36.636Z,2.38
2023-02-15T21:14:38.125Z,2.31
2023-02-15T21:19:41.076Z,2.54
2023-02-15T21:24:49.034Z,2.75
2023-02-15T21:29:50.528Z,2.45
2023-02-15T21:34:52.343Z,2.32
2023-02-15T21:39:53.874Z,2.31
2023-02-15T21:44:55.999Z,2.73
2023-02-15T21:49:57.537Z,2.21
2023-02-15T21:54:59.006Z,2.38
2023-02-15T22:00:00.711Z,2.40
2023-02-15T22:05:02.403Z,2.11
2023-02-15T22:10:04.041Z,2.09
2023-02-15T22:15:06.416Z,1.91
2023-02-15T22:20:14.712Z,1.88
2023-02-15T22:25:18.630Z,1.96
2023-02-15T22:30:23.453Z,1.91
2023-02-15T22:35:30.337Z,2.15
2023-02-15T22:40:35.389Z,2.05
2023-02-15T22:45:37.501Z,2.08
2023-02-15T22:50:39.763Z,2.29
2023-02-15T22:55:41.658Z,2.23
2023-02-15T23:00:44.721Z,2.47
2023-02-15T23:05:46.796Z,2.34
2023-02-15T23:10:55.428Z,2.30
2023-02-15T23:15:59.618Z,2.45
2023-02-15T23:21:04.913Z,2.45
2023-02-15T23:26:20.698Z,2.31
2023-02-15T23:31:38.187Z,2.52
2023-02-15T23:36:39.888Z,2.37
2023-02-15T23:41:41.562Z,2.52
2023-02-15T23:46:46.362Z,2.77
2023-02-15T23:51:54.405Z,2.42
2023-02-15T23:57:00.234Z,2.33
